sensor_id;sensor_type;location;lat;lon;timestamp;temperature;humidity
47070;DHT22;32822;48.140;7.702;2024-03-22T00:01:55;12.40;86.80
47070;DHT22;32822;48.140;7.702;2024-03-22T00:04:22;12.40;86.90
47070;DHT22;32822;48.140;7.702;2024-03-22T00:06:49;12.30;87.00
47070;DHT22;32822;48.140;7.702;2024-03-22T00:09:16;12.30;87.10
47070;DHT22;32822;48.140;7.702;2024-03-22T00:11:43;12.30;87.30
47070;DHT22;32822;48.140;7.702;2024-03-22T00:14:11;12.30;87.50
47070;DHT22;32822;48.140;7.702;2024-03-22T00:16:37;12.30;87.70
47070;DHT22;32822;48.140;7.702;2024-03-22T00:19:05;12.20;87.50
47070;DHT22;32822;48.140;7.702;2024-03-22T00:21:31;12.20;87.60
47070;DHT22;32822;48.140;7.702;2024-03-22T00:23:58;12.20;87.80
47070;DHT22;32822;48.140;7.702;2024-03-22T00:26:24;12.20;87.80
47070;DHT22;32822;48.140;7.702;2024-03-22T00:28:51;12.20;87.60
47070;DHT22;32822;48.140;7.702;2024-03-22T00:31:16;12.20;88.00
47070;DHT22;32822;48.140;7.702;2024-03-22T00:33:43;12.20;87.80
47070;DHT22;32822;48.140;7.702;2024-03-22T00:36:10;12.20;88.40
47070;DHT22;32822;48.140;7.702;2024-03-22T00:38:37;12.10;87.70
47070;DHT22;32822;48.140;7.702;2024-03-22T00:41:03;12.10;87.70
47070;DHT22;32822;48.140;7.702;2024-03-22T00:43:30;12.10;88.00
47070;DHT22;32822;48.140;7.702;2024-03-22T00:45:55;12.10;88.10
47070;DHT22;32822;48.140;7.702;2024-03-22T00:48:23;12.00;88.00
47070;DHT22;32822;48.140;7.702;2024-03-22T00:50:49;12.00;88.20
47070;DHT22;32822;48.140;7.702;2024-03-22T00:53:17;12.00;88.10
47070;DHT22;32822;48.140;7.702;2024-03-22T00:55:43;11.90;88.20
47070;DHT22;32822;48.140;7.702;2024-03-22T00:58:09;11.90;88.40
47070;DHT22;32822;48.140;7.702;2024-03-22T01:00:35;11.90;88.50
47070;DHT22;32822;48.140;7.702;2024-03-22T01:03:03;11.80;88.30
47070;DHT22;32822;48.140;7.702;2024-03-22T01:05:29;11.80;88.40
47070;DHT22;32822;48.140;7.702;2024-03-22T01:07:56;11.80;88.60
47070;DHT22;32822;48.140;7.702;2024-03-22T01:10:23;11.80;89.20
47070;DHT22;32822;48.140;7.702;2024-03-22T01:12:49;11.80;88.60
47070;DHT22;32822;48.140;7.702;2024-03-22T01:15:15;11.80;88.60
47070;DHT22;32822;48.140;7.702;2024-03-22T01:17:42;11.80;89.00
47070;DHT22;32822;48.140;7.702;2024-03-22T01:20:09;11.80;88.80
47070;DHT22;32822;48.140;7.702;2024-03-22T01:22:36;11.70;88.80
47070;DHT22;32822;48.140;7.702;2024-03-22T01:25:02;11.70;89.00
47070;DHT22;32822;48.140;7.702;2024-03-22T01:27:31;11.70;89.10
47070;DHT22;32822;48.140;7.702;2024-03-22T01:29:56;11.70;89.60
47070;DHT22;32822;48.140;7.702;2024-03-22T01:32:23;11.70;89.20
47070;DHT22;32822;48.140;7.702;2024-03-22T01:34:49;11.70;89.30
47070;DHT22;32822;48.140;7.702;2024-03-22T01:37:15;11.60;89.90
47070;DHT22;32822;48.140;7.702;2024-03-22T01:39:41;11.60;89.60
47070;DHT22;32822;48.140;7.702;2024-03-22T01:42:08;11.60;89.50
47070;DHT22;32822;48.140;7.702;2024-03-22T01:44:35;11.60;89.60
47070;DHT22;32822;48.140;7.702;2024-03-22T01:47:02;11.60;89.70
47070;DHT22;32822;48.140;7.702;2024-03-22T01:49:28;11.50;89.70
47070;DHT22;32822;48.140;7.702;2024-03-22T01:51:56;11.50;90.00
47070;DHT22;32822;48.140;7.702;2024-03-22T01:54:21;11.40;90.00
47070;DHT22;32822;48.140;7.702;2024-03-22T01:56:48;11.40;90.10
47070;DHT22;32822;48.140;7.702;2024-03-22T01:59:14;11.40;90.20
47070;DHT22;32822;48.140;7.702;2024-03-22T02:01:42;11.40;90.20
47070;DHT22;32822;48.140;7.702;2024-03-22T02:04:08;11.40;90.40
47070;DHT22;32822;48.140;7.702;2024-03-22T02:06:35;11.30;90.30
47070;DHT22;32822;48.140;7.702;2024-03-22T02:09:01;11.30;90.40
47070;DHT22;32822;48.140;7.702;2024-03-22T02:11:30;11.30;90.80
47070;DHT22;32822;48.140;7.702;2024-03-22T02:13:55;11.30;90.60
47070;DHT22;32822;48.140;7.702;2024-03-22T02:16:22;11.30;90.60
47070;DHT22;32822;48.140;7.702;2024-03-22T02:18:49;11.30;90.60
47070;DHT22;32822;48.140;7.702;2024-03-22T02:21:16;11.30;90.60
47070;DHT22;32822;48.140;7.702;2024-03-22T02:23:43;11.40;90.50
47070;DHT22;32822;48.140;7.702;2024-03-22T02:26:10;11.40;90.60
47070;DHT22;32822;48.140;7.702;2024-03-22T02:28:36;11.40;90.70
47070;DHT22;32822;48.140;7.702;2024-03-22T02:31:03;11.40;90.90
47070;DHT22;32822;48.140;7.702;2024-03-22T02:33:29;11.40;91.00
47070;DHT22;32822;48.140;7.702;2024-03-22T02:35:56;11.30;90.90
47070;DHT22;32822;48.140;7.702;2024-03-22T02:38:22;11.30;90.80
47070;DHT22;32822;48.140;7.702;2024-03-22T02:40:51;11.30;90.80
47070;DHT22;32822;48.140;7.702;2024-03-22T02:43:17;11.40;91.10
47070;DHT22;32822;48.140;7.702;2024-03-22T02:45:46;11.40;91.20
47070;DHT22;32822;48.140;7.702;2024-03-22T02:48:12;11.30;91.30
47070;DHT22;32822;48.140;7.702;2024-03-22T02:50:39;11.30;91.00
47070;DHT22;32822;48.140;7.702;2024-03-22T02:53:05;11.30;91.00
47070;DHT22;32822;48.140;7.702;2024-03-22T02:55:36;11.30;91.00
47070;DHT22;32822;48.140;7.702;2024-03-22T02:58:04;11.30;91.10
47070;DHT22;32822;48.140;7.702;2024-03-22T03:00:31;11.30;91.10
47070;DHT22;32822;48.140;7.702;2024-03-22T03:02:56;11.20;91.10
47070;DHT22;32822;48.140;7.702;2024-03-22T03:05:23;11.20;91.20
47070;DHT22;32822;48.140;7.702;2024-03-22T03:07:49;11.20;91.40
47070;DHT22;32822;48.140;7.702;2024-03-22T03:10:16;11.20;91.10
47070;DHT22;32822;48.140;7.702;2024-03-22T03:12:41;11.20;91.30
47070;DHT22;32822;48.140;7.702;2024-03-22T03:15:10;11.20;91.30
47070;DHT22;32822;48.140;7.702;2024-03-22T03:17:35;11.10;91.30
47070;DHT22;32822;48.140;7.702;2024-03-22T03:20:02;11.10;91.40
47070;DHT22;32822;48.140;7.702;2024-03-22T03:22:33;11.10;91.40
47070;DHT22;32822;48.140;7.702;2024-03-22T03:25:00;11.10;91.50
47070;DHT22;32822;48.140;7.702;2024-03-22T03:27:25;11.10;91.50
47070;DHT22;32822;48.140;7.702;2024-03-22T03:29:52;11.10;91.80
47070;DHT22;32822;48.140;7.702;2024-03-22T03:32:19;11.00;91.70
47070;DHT22;32822;48.140;7.702;2024-03-22T03:34:46;11.00;91.70
47070;DHT22;32822;48.140;7.702;2024-03-22T03:37:11;11.10;91.80
47070;DHT22;32822;48.140;7.702;2024-03-22T03:39:38;11.00;92.10
47070;DHT22;32822;48.140;7.702;2024-03-22T03:42:04;11.00;92.10
47070;DHT22;32822;48.140;7.702;2024-03-22T03:44:31;11.00;92.20
47070;DHT22;32822;48.140;7.702;2024-03-22T03:46:57;11.00;92.20
47070;DHT22;32822;48.140;7.702;2024-03-22T03:49:24;11.00;92.30
47070;DHT22;32822;48.140;7.702;2024-03-22T03:51:50;11.00;92.40
47070;DHT22;32822;48.140;7.702;2024-03-22T03:54:17;11.00;92.50
47070;DHT22;32822;48.140;7.702;2024-03-22T03:56:43;11.00;92.60
47070;DHT22;32822;48.140;7.702;2024-03-22T03:59:09;11.00;92.60
47070;DHT22;32822;48.140;7.702;2024-03-22T04:01:35;11.00;92.60
47070;DHT22;32822;48.140;7.702;2024-03-22T04:04:02;11.00;92.90
47070;DHT22;32822;48.140;7.702;2024-03-22T04:06:29;11.00;93.10
47070;DHT22;32822;48.140;7.702;2024-03-22T04:08:56;11.00;93.10
47070;DHT22;32822;48.140;7.702;2024-03-22T04:11:22;11.00;93.30
47070;DHT22;32822;48.140;7.702;2024-03-22T04:13:49;11.00;93.00
47070;DHT22;32822;48.140;7.702;2024-03-22T04:16:15;11.00;92.90
47070;DHT22;32822;48.140;7.702;2024-03-22T04:18:42;11.00;93.10
47070;DHT22;32822;48.140;7.702;2024-03-22T04:21:07;11.00;93.70
47070;DHT22;32822;48.140;7.702;2024-03-22T04:23:35;11.00;93.30
47070;DHT22;32822;48.140;7.702;2024-03-22T04:26:01;11.00;93.30
47070;DHT22;32822;48.140;7.702;2024-03-22T04:28:29;11.00;93.50
47070;DHT22;32822;48.140;7.702;2024-03-22T04:30:56;11.00;93.30
47070;DHT22;32822;48.140;7.702;2024-03-22T04:33:23;11.00;93.80
47070;DHT22;32822;48.140;7.702;2024-03-22T04:35:48;11.00;93.60
47070;DHT22;32822;48.140;7.702;2024-03-22T04:38:15;11.00;93.50
47070;DHT22;32822;48.140;7.702;2024-03-22T04:40:43;11.00;93.60
47070;DHT22;32822;48.140;7.702;2024-03-22T04:43:09;11.00;94.30
47070;DHT22;32822;48.140;7.702;2024-03-22T04:45:36;11.00;94.00
47070;DHT22;32822;48.140;7.702;2024-03-22T04:48:04;11.00;93.80
47070;DHT22;32822;48.140;7.702;2024-03-22T04:50:30;11.00;93.90
47070;DHT22;32822;48.140;7.702;2024-03-22T04:52:57;11.00;94.00
47070;DHT22;32822;48.140;7.702;2024-03-22T04:55:23;10.90;93.70
47070;DHT22;32822;48.140;7.702;2024-03-22T04:57:51;11.00;94.10
47070;DHT22;32822;48.140;7.702;2024-03-22T05:00:17;10.90;94.10
47070;DHT22;32822;48.140;7.702;2024-03-22T05:02:44;10.90;94.30
47070;DHT22;32822;48.140;7.702;2024-03-22T05:05:11;10.90;94.10
47070;DHT22;32822;48.140;7.702;2024-03-22T05:07:38;10.90;94.70
47070;DHT22;32822;48.140;7.702;2024-03-22T05:10:04;10.90;94.40
47070;DHT22;32822;48.140;7.702;2024-03-22T05:12:31;10.90;94.00
47070;DHT22;32822;48.140;7.702;2024-03-22T05:14:59;10.90;94.10
47070;DHT22;32822;48.140;7.702;2024-03-22T05:17:26;10.90;94.30
47070;DHT22;32822;48.140;7.702;2024-03-22T05:19:54;10.90;94.30
47070;DHT22;32822;48.140;7.702;2024-03-22T05:22:19;10.90;94.10
47070;DHT22;32822;48.140;7.702;2024-03-22T05:24:47;10.90;94.10
47070;DHT22;32822;48.140;7.702;2024-03-22T05:27:13;10.90;94.30
47070;DHT22;32822;48.140;7.702;2024-03-22T05:29:40;10.90;94.40
47070;DHT22;32822;48.140;7.702;2024-03-22T05:32:07;11.00;94.80
47070;DHT22;32822;48.140;7.702;2024-03-22T05:34:34;10.90;94.60
47070;DHT22;32822;48.140;7.702;2024-03-22T05:37:00;10.90;94.60
47070;DHT22;32822;48.140;7.702;2024-03-22T05:39:27;11.00;94.60
47070;DHT22;32822;48.140;7.702;2024-03-22T05:41:53;11.00;94.80
47070;DHT22;32822;48.140;7.702;2024-03-22T05:44:21;11.00;94.80
47070;DHT22;32822;48.140;7.702;2024-03-22T05:46:47;11.00;94.80
47070;DHT22;32822;48.140;7.702;2024-03-22T05:49:15;11.00;94.80
47070;DHT22;32822;48.140;7.702;2024-03-22T05:51:42;11.00;94.90
47070;DHT22;32822;48.140;7.702;2024-03-22T05:54:07;11.00;94.90
47070;DHT22;32822;48.140;7.702;2024-03-22T05:56:34;11.00;94.60
47070;DHT22;32822;48.140;7.702;2024-03-22T05:59:00;11.00;94.90
47070;DHT22;32822;48.140;7.702;2024-03-22T06:01:27;11.00;94.80
47070;DHT22;32822;48.140;7.702;2024-03-22T06:03:52;11.00;94.80
47070;DHT22;32822;48.140;7.702;2024-03-22T06:06:21;11.00;94.60
47070;DHT22;32822;48.140;7.702;2024-03-22T06:08:50;11.00;94.40
47070;DHT22;32822;48.140;7.702;2024-03-22T06:11:18;11.00;94.60
47070;DHT22;32822;48.140;7.702;2024-03-22T06:13:44;11.00;94.70
47070;DHT22;32822;48.140;7.702;2024-03-22T06:16:10;11.00;94.50
47070;DHT22;32822;48.140;7.702;2024-03-22T06:18:36;11.00;94.60
47070;DHT22;32822;48.140;7.702;2024-03-22T06:21:03;11.10;94.50
47070;DHT22;32822;48.140;7.702;2024-03-22T06:23:31;11.10;94.50
47070;DHT22;32822;48.140;7.702;2024-03-22T06:25:58;11.10;94.40
47070;DHT22;32822;48.140;7.702;2024-03-22T06:28:26;11.10;94.30
47070;DHT22;32822;48.140;7.702;2024-03-22T06:30:53;11.10;94.40
47070;DHT22;32822;48.140;7.702;2024-03-22T06:33:19;11.10;94.30
47070;DHT22;32822;48.140;7.702;2024-03-22T06:35:46;11.20;94.20
47070;DHT22;32822;48.140;7.702;2024-03-22T06:38:12;11.20;94.00
47070;DHT22;32822;48.140;7.702;2024-03-22T06:40:40;11.20;93.90
47070;DHT22;32822;48.140;7.702;2024-03-22T06:43:06;11.20;93.80
47070;DHT22;32822;48.140;7.702;2024-03-22T06:45:32;11.30;93.90
47070;DHT22;32822;48.140;7.702;2024-03-22T06:47:58;11.30;93.90
47070;DHT22;32822;48.140;7.702;2024-03-22T06:50:25;11.30;93.90
47070;DHT22;32822;48.140;7.702;2024-03-22T06:52:51;11.30;94.00
47070;DHT22;32822;48.140;7.702;2024-03-22T06:55:18;11.40;93.90
47070;DHT22;32822;48.140;7.702;2024-03-22T06:57:46;11.40;93.90
47070;DHT22;32822;48.140;7.702;2024-03-22T07:00:14;11.40;94.00
47070;DHT22;32822;48.140;7.702;2024-03-22T07:02:40;11.50;94.00
47070;DHT22;32822;48.140;7.702;2024-03-22T07:05:07;11.50;94.00
47070;DHT22;32822;48.140;7.702;2024-03-22T07:07:34;11.50;93.90
47070;DHT22;32822;48.140;7.702;2024-03-22T07:10:00;11.60;94.10
47070;DHT22;32822;48.140;7.702;2024-03-22T07:12:26;11.60;94.00
47070;DHT22;32822;48.140;7.702;2024-03-22T07:14:55;11.60;94.20
47070;DHT22;32822;48.140;7.702;2024-03-22T07:17:20;11.60;94.00
47070;DHT22;32822;48.140;7.702;2024-03-22T07:19:49;11.70;94.00
47070;DHT22;32822;48.140;7.702;2024-03-22T07:22:16;11.70;93.90
47070;DHT22;32822;48.140;7.702;2024-03-22T07:24:43;11.70;94.00
47070;DHT22;32822;48.140;7.702;2024-03-22T07:27:09;11.90;94.10
47070;DHT22;32822;48.140;7.702;2024-03-22T07:29:35;11.80;93.90
47070;DHT22;32822;48.140;7.702;2024-03-22T07:32:03;11.80;94.00
47070;DHT22;32822;48.140;7.702;2024-03-22T07:34:29;11.90;93.90
47070;DHT22;32822;48.140;7.702;2024-03-22T07:36:55;11.90;94.00
47070;DHT22;32822;48.140;7.702;2024-03-22T07:39:22;11.90;94.00
47070;DHT22;32822;48.140;7.702;2024-03-22T07:41:48;12.00;94.00
47070;DHT22;32822;48.140;7.702;2024-03-22T07:44:15;12.00;93.90
47070;DHT22;32822;48.140;7.702;2024-03-22T07:46:43;12.00;93.70
47070;DHT22;32822;48.140;7.702;2024-03-22T07:49:11;12.10;93.80
47070;DHT22;32822;48.140;7.702;2024-03-22T07:51:37;12.20;93.60
47070;DHT22;32822;48.140;7.702;2024-03-22T07:54:04;12.20;93.50
47070;DHT22;32822;48.140;7.702;2024-03-22T07:56:30;12.30;93.50
47070;DHT22;32822;48.140;7.702;2024-03-22T07:58:57;12.30;93.40
47070;DHT22;32822;48.140;7.702;2024-03-22T08:01:24;12.30;93.30
47070;DHT22;32822;48.140;7.702;2024-03-22T08:03:49;12.40;93.10
47070;DHT22;32822;48.140;7.702;2024-03-22T08:06:17;12.40;93.00
47070;DHT22;32822;48.140;7.702;2024-03-22T08:08:43;12.40;93.10
47070;DHT22;32822;48.140;7.702;2024-03-22T08:11:10;12.40;93.10
47070;DHT22;32822;48.140;7.702;2024-03-22T08:13:36;12.50;92.80
47070;DHT22;32822;48.140;7.702;2024-03-22T08:16:04;12.60;92.80
47070;DHT22;32822;48.140;7.702;2024-03-22T08:18:31;12.60;92.60
47070;DHT22;32822;48.140;7.702;2024-03-22T08:20:58;12.70;92.90
47070;DHT22;32822;48.140;7.702;2024-03-22T08:23:25;12.70;92.50
47070;DHT22;32822;48.140;7.702;2024-03-22T08:25:52;12.80;92.80
47070;DHT22;32822;48.140;7.702;2024-03-22T08:28:18;12.80;92.40
47070;DHT22;32822;48.140;7.702;2024-03-22T08:30:45;12.90;92.40
47070;DHT22;32822;48.140;7.702;2024-03-22T08:33:11;12.90;92.30
47070;DHT22;32822;48.140;7.702;2024-03-22T08:35:38;12.90;92.40
47070;DHT22;32822;48.140;7.702;2024-03-22T08:38:04;13.00;92.40
47070;DHT22;32822;48.140;7.702;2024-03-22T08:40:36;13.10;92.40
47070;DHT22;32822;48.140;7.702;2024-03-22T08:43:03;13.10;92.30
47070;DHT22;32822;48.140;7.702;2024-03-22T08:45:30;13.20;92.50
47070;DHT22;32822;48.140;7.702;2024-03-22T08:47:55;13.30;92.40
47070;DHT22;32822;48.140;7.702;2024-03-22T08:50:22;13.40;92.30
47070;DHT22;32822;48.140;7.702;2024-03-22T08:52:48;13.40;92.50
47070;DHT22;32822;48.140;7.702;2024-03-22T08:55:14;13.50;91.90
47070;DHT22;32822;48.140;7.702;2024-03-22T08:57:41;13.60;91.80
47070;DHT22;32822;48.140;7.702;2024-03-22T09:00:09;13.60;92.00
47070;DHT22;32822;48.140;7.702;2024-03-22T09:02:36;13.70;92.10
47070;DHT22;32822;48.140;7.702;2024-03-22T09:05:04;13.70;92.20
47070;DHT22;32822;48.140;7.702;2024-03-22T09:07:29;13.80;92.10
47070;DHT22;32822;48.140;7.702;2024-03-22T09:09:56;14.00;92.00
47070;DHT22;32822;48.140;7.702;2024-03-22T09:12:22;14.00;91.90
47070;DHT22;32822;48.140;7.702;2024-03-22T09:14:50;14.00;91.70
47070;DHT22;32822;48.140;7.702;2024-03-22T09:17:15;14.10;91.60
47070;DHT22;32822;48.140;7.702;2024-03-22T09:19:43;14.10;91.40
47070;DHT22;32822;48.140;7.702;2024-03-22T09:22:09;14.20;91.60
47070;DHT22;32822;48.140;7.702;2024-03-22T09:24:35;14.20;91.60
47070;DHT22;32822;48.140;7.702;2024-03-22T09:27:01;14.30;91.80
47070;DHT22;32822;48.140;7.702;2024-03-22T09:29:29;14.40;91.40
47070;DHT22;32822;48.140;7.702;2024-03-22T09:31:56;14.40;90.60
47070;DHT22;32822;48.140;7.702;2024-03-22T09:34:23;14.50;90.50
47070;DHT22;32822;48.140;7.702;2024-03-22T09:36:49;14.60;90.20
47070;DHT22;32822;48.140;7.702;2024-03-22T09:39:15;14.70;88.20
47070;DHT22;32822;48.140;7.702;2024-03-22T09:41:43;14.80;86.20
47070;DHT22;32822;48.140;7.702;2024-03-22T09:44:13;15.00;85.10
47070;DHT22;32822;48.140;7.702;2024-03-22T09:46:40;15.10;84.10
47070;DHT22;32822;48.140;7.702;2024-03-22T09:49:10;15.30;84.00
47070;DHT22;32822;48.140;7.702;2024-03-22T09:51:36;15.40;83.10
47070;DHT22;32822;48.140;7.702;2024-03-22T09:54:03;15.50;82.20
47070;DHT22;32822;48.140;7.702;2024-03-22T09:56:30;15.50;82.10
47070;DHT22;32822;48.140;7.702;2024-03-22T09:58:58;15.70;81.80
47070;DHT22;32822;48.140;7.702;2024-03-22T10:01:24;15.90;82.80
47070;DHT22;32822;48.140;7.702;2024-03-22T10:03:51;16.00;82.30
47070;DHT22;32822;48.140;7.702;2024-03-22T10:06:18;16.00;82.30
47070;DHT22;32822;48.140;7.702;2024-03-22T10:08:45;16.10;83.40
47070;DHT22;32822;48.140;7.702;2024-03-22T10:11:11;16.10;82.60
47070;DHT22;32822;48.140;7.702;2024-03-22T10:13:38;16.20;82.40
47070;DHT22;32822;48.140;7.702;2024-03-22T10:16:04;16.30;81.60
47070;DHT22;32822;48.140;7.702;2024-03-22T10:18:33;16.40;81.30
47070;DHT22;32822;48.140;7.702;2024-03-22T10:21:00;16.50;79.60
47070;DHT22;32822;48.140;7.702;2024-03-22T10:23:29;16.60;78.60
47070;DHT22;32822;48.140;7.702;2024-03-22T10:25:56;16.70;78.30
47070;DHT22;32822;48.140;7.702;2024-03-22T10:28:23;16.80;76.90
47070;DHT22;32822;48.140;7.702;2024-03-22T10:30:50;16.80;76.70
47070;DHT22;32822;48.140;7.702;2024-03-22T10:33:18;16.90;77.40
47070;DHT22;32822;48.140;7.702;2024-03-22T10:35:44;16.90;76.10
47070;DHT22;32822;48.140;7.702;2024-03-22T10:38:12;16.90;75.30
47070;DHT22;32822;48.140;7.702;2024-03-22T10:40:40;17.00;75.40
47070;DHT22;32822;48.140;7.702;2024-03-22T10:43:09;17.00;72.70
47070;DHT22;32822;48.140;7.702;2024-03-22T10:45:35;17.10;71.00
47070;DHT22;32822;48.140;7.702;2024-03-22T10:48:08;17.10;68.70
47070;DHT22;32822;48.140;7.702;2024-03-22T10:50:39;17.20;71.10
47070;DHT22;32822;48.140;7.702;2024-03-22T10:53:07;17.20;68.40
47070;DHT22;32822;48.140;7.702;2024-03-22T10:55:37;17.20;68.90
47070;DHT22;32822;48.140;7.702;2024-03-22T10:58:05;17.30;67.70
47070;DHT22;32822;48.140;7.702;2024-03-22T11:00:34;17.30;69.30
47070;DHT22;32822;48.140;7.702;2024-03-22T11:03:02;17.40;66.80
47070;DHT22;32822;48.140;7.702;2024-03-22T11:05:29;17.50;67.00
47070;DHT22;32822;48.140;7.702;2024-03-22T11:07:59;17.60;67.00
47070;DHT22;32822;48.140;7.702;2024-03-22T11:10:28;17.60;65.10
47070;DHT22;32822;48.140;7.702;2024-03-22T11:12:55;17.70;66.30
47070;DHT22;32822;48.140;7.702;2024-03-22T11:15:23;17.70;65.10
47070;DHT22;32822;48.140;7.702;2024-03-22T11:17:49;17.70;64.00
47070;DHT22;32822;48.140;7.702;2024-03-22T11:20:16;17.80;63.80
47070;DHT22;32822;48.140;7.702;2024-03-22T11:22:42;17.80;64.40
47070;DHT22;32822;48.140;7.702;2024-03-22T11:25:09;17.90;62.80
47070;DHT22;32822;48.140;7.702;2024-03-22T11:27:35;17.90;63.40
47070;DHT22;32822;48.140;7.702;2024-03-22T11:30:02;18.00;62.50
47070;DHT22;32822;48.140;7.702;2024-03-22T11:32:30;18.00;62.80
47070;DHT22;32822;48.140;7.702;2024-03-22T11:34:57;18.10;63.50
47070;DHT22;32822;48.140;7.702;2024-03-22T11:37:22;18.10;61.50
47070;DHT22;32822;48.140;7.702;2024-03-22T11:39:49;18.10;60.60
47070;DHT22;32822;48.140;7.702;2024-03-22T11:42:15;18.20;60.20
47070;DHT22;32822;48.140;7.702;2024-03-22T11:44:43;18.20;61.50
47070;DHT22;32822;48.140;7.702;2024-03-22T11:47:09;18.30;58.60
47070;DHT22;32822;48.140;7.702;2024-03-22T11:49:37;18.30;58.10
47070;DHT22;32822;48.140;7.702;2024-03-22T11:52:03;18.40;58.00
47070;DHT22;32822;48.140;7.702;2024-03-22T11:54:30;18.40;58.10
47070;DHT22;32822;48.140;7.702;2024-03-22T11:56:56;18.40;57.40
47070;DHT22;32822;48.140;7.702;2024-03-22T11:59:23;18.50;56.50
47070;DHT22;32822;48.140;7.702;2024-03-22T12:01:49;18.60;55.80
47070;DHT22;32822;48.140;7.702;2024-03-22T12:04:15;18.60;56.80
47070;DHT22;32822;48.140;7.702;2024-03-22T12:06:43;18.70;57.20
47070;DHT22;32822;48.140;7.702;2024-03-22T12:09:11;18.70;56.90
47070;DHT22;32822;48.140;7.702;2024-03-22T12:11:37;18.70;57.40
47070;DHT22;32822;48.140;7.702;2024-03-22T12:14:04;18.70;56.40
47070;DHT22;32822;48.140;7.702;2024-03-22T12:16:30;18.80;56.60
47070;DHT22;32822;48.140;7.702;2024-03-22T12:18:57;18.80;54.50
47070;DHT22;32822;48.140;7.702;2024-03-22T12:21:23;18.90;54.00
47070;DHT22;32822;48.140;7.702;2024-03-22T12:23:51;19.00;53.80
47070;DHT22;32822;48.140;7.702;2024-03-22T12:26:17;19.10;55.00
47070;DHT22;32822;48.140;7.702;2024-03-22T12:28:44;19.20;55.00
47070;DHT22;32822;48.140;7.702;2024-03-22T12:31:09;19.30;53.50
47070;DHT22;32822;48.140;7.702;2024-03-22T12:33:37;19.40;53.00
47070;DHT22;32822;48.140;7.702;2024-03-22T12:36:03;19.50;53.70
47070;DHT22;32822;48.140;7.702;2024-03-22T12:38:30;19.50;53.20
47070;DHT22;32822;48.140;7.702;2024-03-22T12:40:57;19.50;53.00
47070;DHT22;32822;48.140;7.702;2024-03-22T12:43:24;19.50;50.20
47070;DHT22;32822;48.140;7.702;2024-03-22T12:45:49;19.60;51.60
47070;DHT22;32822;48.140;7.702;2024-03-22T12:48:17;19.60;51.90
47070;DHT22;32822;48.140;7.702;2024-03-22T12:50:42;19.60;52.10
47070;DHT22;32822;48.140;7.702;2024-03-22T12:53:09;19.60;53.90
47070;DHT22;32822;48.140;7.702;2024-03-22T12:55:35;19.70;51.90
47070;DHT22;32822;48.140;7.702;2024-03-22T12:58:03;19.70;49.40
47070;DHT22;32822;48.140;7.702;2024-03-22T13:00:30;19.70;50.50
47070;DHT22;32822;48.140;7.702;2024-03-22T13:02:59;19.60;50.70
47070;DHT22;32822;48.140;7.702;2024-03-22T13:05:25;19.60;50.90
47070;DHT22;32822;48.140;7.702;2024-03-22T13:07:52;19.60;48.30
47070;DHT22;32822;48.140;7.702;2024-03-22T13:10:18;19.60;48.90
47070;DHT22;32822;48.140;7.702;2024-03-22T13:12:45;19.60;48.70
47070;DHT22;32822;48.140;7.702;2024-03-22T13:15:12;19.60;49.80
47070;DHT22;32822;48.140;7.702;2024-03-22T13:17:40;19.60;49.70
47070;DHT22;32822;48.140;7.702;2024-03-22T13:20:06;19.60;50.40
47070;DHT22;32822;48.140;7.702;2024-03-22T13:22:36;19.50;49.70
47070;DHT22;32822;48.140;7.702;2024-03-22T13:25:02;19.50;49.70
47070;DHT22;32822;48.140;7.702;2024-03-22T13:27:32;19.50;50.70
47070;DHT22;32822;48.140;7.702;2024-03-22T13:29:57;19.50;50.40
47070;DHT22;32822;48.140;7.702;2024-03-22T13:32:25;19.50;50.10
47070;DHT22;32822;48.140;7.702;2024-03-22T13:34:51;19.60;51.10
47070;DHT22;32822;48.140;7.702;2024-03-22T13:37:18;19.60;50.00
47070;DHT22;32822;48.140;7.702;2024-03-22T13:39:48;19.60;51.30
47070;DHT22;32822;48.140;7.702;2024-03-22T13:42:15;19.60;52.00
47070;DHT22;32822;48.140;7.702;2024-03-22T13:44:41;19.60;52.10
47070;DHT22;32822;48.140;7.702;2024-03-22T13:47:08;19.60;51.10
47070;DHT22;32822;48.140;7.702;2024-03-22T13:49:35;19.60;50.70
47070;DHT22;32822;48.140;7.702;2024-03-22T13:52:04;19.70;49.90
47070;DHT22;32822;48.140;7.702;2024-03-22T13:54:30;19.70;49.40
47070;DHT22;32822;48.140;7.702;2024-03-22T13:56:57;19.70;51.00
47070;DHT22;32822;48.140;7.702;2024-03-22T13:59:22;19.70;50.60
47070;DHT22;32822;48.140;7.702;2024-03-22T14:01:49;19.70;50.60
47070;DHT22;32822;48.140;7.702;2024-03-22T14:04:15;19.70;50.40
47070;DHT22;32822;48.140;7.702;2024-03-22T14:06:43;19.70;49.60
47070;DHT22;32822;48.140;7.702;2024-03-22T14:09:08;19.70;49.20
47070;DHT22;32822;48.140;7.702;2024-03-22T14:11:38;19.80;50.10
47070;DHT22;32822;48.140;7.702;2024-03-22T14:14:05;19.80;48.80
47070;DHT22;32822;48.140;7.702;2024-03-22T14:16:32;19.80;49.60
47070;DHT22;32822;48.140;7.702;2024-03-22T14:18:58;19.80;50.20
47070;DHT22;32822;48.140;7.702;2024-03-22T14:21:26;19.80;48.00
47070;DHT22;32822;48.140;7.702;2024-03-22T14:23:53;19.90;48.90
47070;DHT22;32822;48.140;7.702;2024-03-22T14:26:20;19.90;49.50
47070;DHT22;32822;48.140;7.702;2024-03-22T14:28:46;19.90;47.90
47070;DHT22;32822;48.140;7.702;2024-03-22T14:31:15;20.00;48.00
47070;DHT22;32822;48.140;7.702;2024-03-22T14:33:41;20.00;48.00
47070;DHT22;32822;48.140;7.702;2024-03-22T14:36:08;20.00;48.60
47070;DHT22;32822;48.140;7.702;2024-03-22T14:38:35;20.00;47.10
47070;DHT22;32822;48.140;7.702;2024-03-22T14:41:04;20.00;46.40
47070;DHT22;32822;48.140;7.702;2024-03-22T14:43:30;20.00;46.50
47070;DHT22;32822;48.140;7.702;2024-03-22T14:46:00;20.00;47.90
47070;DHT22;32822;48.140;7.702;2024-03-22T14:48:26;20.00;45.70
47070;DHT22;32822;48.140;7.702;2024-03-22T14:50:52;20.00;48.40
47070;DHT22;32822;48.140;7.702;2024-03-22T14:53:19;19.90;48.60
47070;DHT22;32822;48.140;7.702;2024-03-22T14:55:53;19.90;49.10
47070;DHT22;32822;48.140;7.702;2024-03-22T14:58:21;19.90;48.00
47070;DHT22;32822;48.140;7.702;2024-03-22T15:00:52;19.90;48.30
47070;DHT22;32822;48.140;7.702;2024-03-22T15:03:18;19.90;48.20
47070;DHT22;32822;48.140;7.702;2024-03-22T15:05:45;19.90;48.80
47070;DHT22;32822;48.140;7.702;2024-03-22T15:08:11;19.80;48.60
47070;DHT22;32822;48.140;7.702;2024-03-22T15:10:38;19.80;48.20
47070;DHT22;32822;48.140;7.702;2024-03-22T15:13:04;19.90;47.70
47070;DHT22;32822;48.140;7.702;2024-03-22T15:15:34;19.90;46.50
47070;DHT22;32822;48.140;7.702;2024-03-22T15:18:00;19.90;46.70
47070;DHT22;32822;48.140;7.702;2024-03-22T15:20:27;19.90;45.80
47070;DHT22;32822;48.140;7.702;2024-03-22T15:22:53;20.00;46.70
47070;DHT22;32822;48.140;7.702;2024-03-22T15:25:19;19.90;47.50
47070;DHT22;32822;48.140;7.702;2024-03-22T15:27:45;20.00;47.40